Time;durP1;ratioP1;P1;durP2;ratioP2;P2;SDS_P1;SDS_P2;PMS_P1;PMS_P2;Temp;Humidity;BMP_temperature;BMP_pressure;BME280_temperature;BME280_humidity;BME280_pressure;Samples;Min_cycle;Max_cycle;Signal;HPM_P1;HPM_P2
2021/07/14 00:00:00;;;;;;;13.48;12.13;;;;;;;27.03;40.11;99298.72;5032636;28;20029;-80
2021/07/14 00:02:26;;;;;;;13.30;12.10;;;;;;;26.92;40.25;99293.41;5033993;28;20083;-79
2021/07/14 00:04:51;;;;;;;12.52;11.40;;;;;;;27.00;40.20;99305.53;5034111;28;20029;-80
2021/07/14 00:07:17;;;;;;;14.52;13.07;;;;;;;27.13;40.20;99323.78;5033996;28;20036;-79
2021/07/14 00:09:43;;;;;;;13.65;12.50;;;;;;;27.12;40.41;99321.38;5034175;28;20036;-81
2021/07/14 00:12:11;;;;;;;13.68;12.57;;;;;;;27.19;40.18;99330.75;5034085;28;20029;-79
2021/07/14 00:22:49;;;;;;;12.75;11.73;;;;;;;26.64;40.29;99259.09;5033810;28;20048;-80
2021/07/14 00:25:14;;;;;;;14.25;13.05;;;;;;;26.73;40.20;99283.63;5032474;28;20025;-81
2021/07/14 00:27:43;;;;;;;14.35;13.23;;;;;;;26.79;40.17;99285.19;5032511;28;20044;-80
2021/07/14 00:30:14;;;;;;;15.00;13.70;;;;;;;27.03;40.02;99318.50;5032355;28;20033;-80
2021/07/14 00:32:40;;;;;;;13.85;12.55;;;;;;;26.69;40.24;99279.88;5033574;28;20035;-80
2021/07/14 00:35:07;;;;;;;12.85;11.68;;;;;;;26.76;40.29;99277.66;5033643;28;20029;-80
2021/07/14 00:37:34;;;;;;;13.35;12.15;;;;;;;27.04;40.27;99339.09;5033384;28;20540;-79
2021/07/14 00:39:59;;;;;;;14.40;13.10;;;;;;;26.70;40.50;99276.06;5033477;28;20030;-81
2021/07/14 00:42:26;;;;;;;12.85;11.77;;;;;;;26.64;40.15;99266.41;5032023;28;20049;-77
2021/07/14 00:44:54;;;;;;;13.00;11.88;;;;;;;26.64;40.32;99288.88;5033601;28;20457;-80
2021/07/14 00:47:26;;;;;;;12.98;11.45;;;;;;;27.03;40.42;99337.47;5033211;28;20049;-77
2021/07/14 00:49:52;;;;;;;13.60;12.35;;;;;;;27.05;40.45;99339.88;5033328;28;20028;-79
2021/07/14 00:52:17;;;;;;;13.15;11.93;;;;;;;26.63;40.52;99268.31;5033148;28;20438;-78
2021/07/14 00:54:44;;;;;;;13.98;12.70;;;;;;;26.63;40.15;99270.22;5033094;28;20033;-81
2021/07/14 00:57:09;;;;;;;13.10;11.93;;;;;;;26.99;40.47;99325.59;5032942;28;20030;-80
2021/07/14 00:59:35;;;;;;;13.70;12.48;;;;;;;26.57;40.47;99259.44;5033201;28;20033;-80
2021/07/14 01:02:01;;;;;;;14.57;13.27;;;;;;;26.86;40.38;99310.03;5032996;28;20052;-80
2021/07/14 01:04:30;;;;;;;12.88;11.80;;;;;;;27.07;40.50;99353.94;5032670;28;20131;-80
2021/07/14 01:07:17;;;;;;;17.20;15.57;;;;;;;26.96;40.41;99347.03;5032763;28;20026;-80
2021/07/14 01:09:49;;;;;;;19.23;17.27;;;;;;;26.79;40.74;99337.47;5032868;28;20021;-79
2021/07/14 01:12:31;;;;;;;19.15;17.27;;;;;;;26.45;40.74;99290.72;5032923;28;20025;-80
2021/07/14 01:15:06;;;;;;;18.40;16.92;;;;;;;26.70;40.74;99343.78;5031423;28;20413;-81
2021/07/14 01:17:37;;;;;;;16.58;15.05;;;;;;;26.15;40.89;99286.44;5032566;28;20029;-79
2021/07/14 01:20:18;;;;;;;18.55;16.70;;;;;;;26.31;40.96;99317.66;5032577;28;20410;-80
2021/07/14 01:23:05;;;;;;;29.80;26.40;;;;;;;26.46;41.21;99352.72;5032617;28;20037;-80
2021/07/14 01:25:52;;;;;;;42.65;34.22;;;;;;;26.40;41.33;99351.16;5032405;28;20413;-75
2021/07/14 01:28:20;;;;;;;41.78;33.58;;;;;;;26.32;41.27;99354.44;5032405;28;20021;-74
2021/07/14 01:30:48;;;;;;;34.58;27.60;;;;;;;25.83;41.36;99285.09;5030919;28;20025;-74
2021/07/14 01:33:18;;;;;;;28.27;23.60;;;;;;;26.20;41.72;99349.44;5032116;28;20554;-74
2021/07/14 01:35:46;;;;;;;24.60;18.33;;;;;;;25.90;41.86;99307.19;5032204;28;20033;-74
2021/07/14 01:38:14;;;;;;;25.00;17.27;;;;;;;26.08;41.89;99346.28;5032418;28;20055;-75
2021/07/14 01:40:41;;;;;;;19.50;14.68;;;;;;;26.03;42.07;99350.94;5031921;28;20052;-73
2021/07/14 01:43:09;;;;;;;16.38;14.77;;;;;;;25.90;42.08;99353.19;5030838;28;20120;-74
2021/07/14 01:45:39;;;;;;;19.35;14.02;;;;;;;25.84;42.40;99358.91;5031426;28;20505;-75
2021/07/14 01:48:08;;;;;;;19.40;14.57;;;;;;;25.82;42.55;99355.69;5030697;28;20017;-74
2021/07/14 01:50:34;;;;;;;16.77;14.70;;;;;;;25.32;42.38;99298.16;5031780;28;20108;-73
2021/07/14 01:53:00;;;;;;;15.65;13.10;;;;;;;25.71;42.94;99354.16;5031936;28;20111;-73
2021/07/14 01:55:28;;;;;;;15.13;13.25;;;;;;;25.66;42.91;99355.00;5032255;28;20064;-74
2021/07/14 01:57:54;;;;;;;16.48;13.30;;;;;;;25.55;43.10;99356.13;5031742;28;20026;-75
2021/07/14 02:00:21;;;;;;;15.93;12.85;;;;;;;25.13;43.23;99295.28;5031918;28;20473;-74
2021/07/14 02:03:08;;;;;;;13.68;12.43;;;;;;;25.49;42.98;99351.84;5031782;28;20083;-73
2021/07/14 02:05:38;;;;;;;13.95;12.63;;;;;;;24.96;43.46;99281.31;5031800;28;20029;-74
2021/07/14 02:08:04;;;;;;;18.70;13.13;;;;;;;25.30;43.36;99343.59;5030570;28;20104;-75
2021/07/14 02:10:31;;;;;;;16.55;12.73;;;;;;;25.25;43.64;99354.38;5031686;28;20482;-74
2021/07/14 02:12:58;;;;;;;14.10;12.68;;;;;;;24.77;43.98;99294.63;5031759;28;20037;-75
2021/07/14 02:15:26;;;;;;;18.73;12.65;;;;;;;24.99;44.07;99342.91;5030381;28;20032;-74
2021/07/14 02:18:09;;;;;;;13.88;12.48;;;;;;;25.06;44.29;99354.22;5031464;28;20040;-74
2021/07/14 02:20:35;;;;;;;15.05;13.10;;;;;;;25.06;44.38;99356.13;5031379;28;20025;-74
2021/07/14 02:23:04;;;;;;;16.02;12.10;;;;;;;25.03;44.44;99357.47;5031472;28;20486;-74
2021/07/14 02:25:29;;;;;;;17.10;13.15;;;;;;;24.67;44.50;99308.19;5031576;28;20025;-80
2021/07/14 02:27:55;;;;;;;14.40;12.60;;;;;;;24.75;44.67;99320.31;5031397;28;20037;-80
2021/07/14 02:30:22;;;;;;;14.07;12.80;;;;;;;24.95;44.58;99352.63;5031376;28;20026;-79
2021/07/14 02:32:56;;;;;;;14.07;12.77;;;;;;;24.93;44.73;99352.09;5031395;28;20107;-79
2021/07/14 02:35:23;;;;;;;13.55;12.23;;;;;;;24.76;44.54;99319.22;5031194;28;20033;-81
2021/07/14 02:37:54;;;;;;;14.18;12.73;;;;;;;24.97;44.72;99361.25;5031196;28;20095;-81
2021/07/14 02:40:40;;;;;;;19.50;12.63;;;;;;;24.61;44.75;99304.69;5031274;28;20083;-81
2021/07/14 02:43:07;;;;;;;16.55;12.27;;;;;;;25.04;44.49;99353.69;5030031;28;20095;-79
2021/07/14 02:45:40;;;;;;;13.98;12.57;;;;;;;25.07;44.51;99353.13;5031362;28;20113;-80
2021/07/14 02:48:07;;;;;;;14.00;12.68;;;;;;;24.63;44.60;99285.53;5031411;28;20032;-80
2021/07/14 02:50:35;;;;;;;13.65;12.30;;;;;;;25.08;44.60;99349.34;5031324;28;20032;-81
2021/07/14 02:53:09;;;;;;;14.90;12.52;;;;;;;25.10;44.74;99363.38;5030072;28;20026;-80
2021/07/14 02:55:37;;;;;;;13.20;11.90;;;;;;;25.13;44.41;99356.63;5031837;28;20030;-81
2021/07/14 02:58:05;;;;;;;16.67;12.65;;;;;;;25.16;44.58;99346.06;5035164;28;20488;-79
2021/07/14 03:00:32;;;;;;;14.57;12.65;;;;;;;25.09;44.66;99340.16;5033994;28;20033;-79
2021/07/14 03:02:58;;;;;;;13.60;12.27;;;;;;;24.81;44.59;99300.28;5033825;28;20033;-80
2021/07/14 03:05:25;;;;;;;13.88;12.52;;;;;;;25.14;44.57;99358.22;5034831;28;20410;-79
2021/07/14 03:07:52;;;;;;;14.07;12.77;;;;;;;25.11;44.73;99356.91;5034962;28;20395;-79
2021/07/14 03:10:19;;;;;;;17.35;13.75;;;;;;;25.02;44.71;99348.56;5035111;28;20028;-79
2021/07/14 03:12:54;;;;;;;15.40;13.30;;;;;;;24.74;44.81;99307.88;5035123;28;20032;-78
2021/07/14 03:15:21;;;;;;;15.18;13.65;;;;;;;25.03;44.97;99363.69;5035043;28;20483;-80
2021/07/14 03:17:48;;;;;;;14.55;13.23;;;;;;;24.72;44.91;99310.84;5034738;28;20025;-79
2021/07/14 03:20:15;;;;;;;15.43;13.43;;;;;;;24.92;45.13;99345.88;5034846;28;20029;-80
2021/07/14 03:22:50;;;;;;;15.60;13.98;;;;;;;24.96;45.46;99360.44;5034767;28;20030;-80
2021/07/14 03:25:17;;;;;;;17.40;14.63;;;;;;;24.89;45.41;99370.75;5033419;28;20037;-74
2021/07/14 03:27:46;;;;;;;16.67;13.80;;;;;;;24.44;45.36;99314.16;5034583;28;20482;-74
2021/07/14 03:30:12;;;;;;;14.65;13.32;;;;;;;24.48;45.47;99321.44;5034570;28;20571;-74
2021/07/14 03:32:39;;;;;;;15.48;14.02;;;;;;;24.83;45.38;99377.25;5034663;28;20040;-73
2021/07/14 03:35:06;;;;;;;15.95;13.40;;;;;;;24.82;45.41;99372.13;5033023;28;20093;-74
2021/07/14 03:37:31;;;;;;;18.30;13.63;;;;;;;24.34;45.65;99307.72;5034226;28;20029;-74
2021/07/14 03:39:57;;;;;;;15.02;13.52;;;;;;;24.72;45.71;99389.16;5034566;28;20437;-74
2021/07/14 03:42:24;;;;;;;17.60;13.43;;;;;;;24.48;45.95;99350.31;5034413;28;20033;-74
2021/07/14 03:44:52;;;;;;;21.38;14.48;;;;;;;24.59;45.86;99370.84;5034310;28;20025;-74
2021/07/14 03:47:19;;;;;;;15.25;13.73;;;;;;;24.67;46.08;99384.59;5034387;28;20029;-74
2021/07/14 03:49:46;;;;;;;20.65;14.05;;;;;;;24.57;45.95;99371.13;5034273;28;20025;-75
2021/07/14 03:52:15;;;;;;;14.82;12.77;;;;;;;24.65;46.16;99385.94;5034616;28;20083;-75
2021/07/14 03:54:41;;;;;;;14.95;12.88;;;;;;;24.55;46.00;99373.28;5034377;28;20034;-75
2021/07/14 03:57:10;;;;;;;15.38;13.23;;;;;;;24.69;46.06;99403.22;5034200;28;20033;-74
2021/07/14 03:59:37;;;;;;;14.43;12.98;;;;;;;24.68;46.04;99388.09;5034049;28;20040;-75
2021/07/14 04:02:06;;;;;;;14.07;12.77;;;;;;;24.20;46.19;99308.53;5034284;28;20032;-75
2021/07/14 04:04:31;;;;;;;17.90;13.20;;;;;;;24.65;46.05;99386.75;5033955;28;20029;-75
2021/07/14 04:07:02;;;;;;;19.45;13.38;;;;;;;24.80;45.96;99407.50;5033640;28;20028;-75
2021/07/14 04:09:28;;;;;;;17.70;14.10;;;;;;;24.50;46.12;99358.94;5033751;28;20500;-75
2021/07/14 04:11:56;;;;;;;15.48;13.20;;;;;;;24.48;46.15;99355.72;5033736;28;20121;-76
2021/07/14 04:14:22;;;;;;;15.27;13.13;;;;;;;24.83;46.03;99404.25;5033817;28;20025;-75
2021/07/14 04:16:48;;;;;;;15.15;13.63;;;;;;;24.84;45.91;99395.06;5033439;28;20080;-75
2021/07/14 04:19:13;;;;;;;14.85;13.20;;;;;;;24.77;46.33;99399.94;5033597;28;20522;-74
2021/07/14 04:21:39;;;;;;;14.70;13.20;;;;;;;24.89;46.12;99408.56;5033370;28;20417;-74
2021/07/14 04:24:05;;;;;;;18.00;13.57;;;;;;;24.93;46.43;99409.63;5033435;28;20104;-74
2021/07/14 04:26:31;;;;;;;17.45;14.00;;;;;;;24.99;46.15;99407.75;5033564;28;20036;-75
2021/07/14 04:28:56;;;;;;;15.23;13.68;;;;;;;25.01;46.36;99414.47;5033260;28;20033;-75
2021/07/14 04:31:22;;;;;;;19.20;14.73;;;;;;;25.09;46.48;99415.81;5033283;28;20049;-76
2021/07/14 04:33:47;;;;;;;15.30;13.90;;;;;;;24.97;46.47;99417.97;5033476;28;20104;-75
2021/07/14 04:36:13;;;;;;;14.55;13.05;;;;;;;24.60;46.56;99359.75;5033435;28;20075;-74
2021/07/14 04:38:38;;;;;;;15.70;12.50;;;;;;;25.08;46.60;99426.88;5033436;28;20018;-74
2021/07/14 04:41:04;;;;;;;16.67;14.38;;;;;;;25.09;46.82;99432.00;5032994;28;20098;-75
2021/07/14 04:43:30;;;;;;;20.92;15.60;;;;;;;25.12;47.44;99434.16;5031730;28;20021;-74
2021/07/14 04:45:55;;;;;;;16.73;15.15;;;;;;;24.91;47.74;99417.19;5033173;28;20036;-75
2021/07/14 04:48:22;;;;;;;17.02;15.13;;;;;;;24.74;47.71;99376.19;5032992;28;20025;-73
2021/07/14 04:50:48;;;;;;;17.42;15.10;;;;;;;24.84;47.73;99396.94;5033087;28;20457;-73
2021/07/14 04:53:14;;;;;;;17.23;15.40;;;;;;;25.27;48.14;99436.84;5032843;28;20025;-76
2021/07/14 04:55:39;;;;;;;18.70;14.35;;;;;;;24.96;48.00;99387.47;5032901;28;20029;-76
2021/07/14 04:58:05;;;;;;;15.82;13.68;;;;;;;25.35;47.82;99430.03;5035505;28;20564;-74
2021/07/14 05:00:31;;;;;;;21.25;14.82;;;;;;;25.48;47.85;99442.94;5041167;28;20016;-75
2021/07/14 05:02:56;;;;;;;21.23;14.93;;;;;;;25.57;48.00;99446.69;5053208;28;20485;-75
2021/07/14 05:05:22;;;;;;;20.50;18.33;;;;;;;25.65;48.13;99445.28;5048513;28;20410;-74
2021/07/14 05:07:49;;;;;;;20.05;17.40;;;;;;;25.74;48.17;99453.66;5032880;28;20494;-74
2021/07/14 05:10:16;;;;;;;17.50;15.80;;;;;;;25.79;48.06;99454.44;5044096;28;20055;-74
2021/07/14 05:12:42;;;;;;;16.77;15.00;;;;;;;25.79;48.37;99451.72;5045324;28;20061;-74
2021/07/14 05:15:08;;;;;;;18.30;15.48;;;;;;;25.85;48.77;99445.19;5032576;28;20510;-74
2021/07/14 05:17:34;;;;;;;18.80;15.48;;;;;;;25.73;48.63;99417.69;5033277;28;20116;-74
2021/07/14 05:19:59;;;;;;;18.15;15.07;;;;;;;26.07;48.48;99454.81;5030447;28;20108;-73
2021/07/14 05:22:25;;;;;;;16.42;14.80;;;;;;;26.08;48.74;99448.31;5043204;28;20394;-74
2021/07/14 05:24:50;;;;;;;16.02;14.52;;;;;;;26.22;48.42;99454.69;5050542;28;20091;-74
2021/07/14 05:27:16;;;;;;;15.73;14.05;;;;;;;26.17;48.58;99436.59;5038696;28;20024;-74
2021/07/14 05:29:41;;;;;;;16.08;14.45;;;;;;;25.95;48.56;99401.03;5049005;28;20140;-73
2021/07/14 05:32:07;;;;;;;14.02;12.27;;;;;;;26.10;48.60;99389.31;5044821;28;20028;-72
2021/07/14 05:34:32;;;;;;;14.80;13.35;;;;;;;26.58;48.44;99453.31;5033270;28;20040;-73
2021/07/14 05:36:59;;;;;;;15.30;13.80;;;;;;;26.37;48.31;99408.56;5031923;28;20486;-73
2021/07/14 05:39:24;;;;;;;14.73;13.23;;;;;;;26.47;48.31;99415.78;5037975;28;20048;-74
2021/07/14 05:41:50;;;;;;;14.27;12.82;;;;;;;26.68;48.09;99447.00;5051482;28;20421;-74
2021/07/14 05:44:16;;;;;;;15.68;13.25;;;;;;;26.33;47.90;99383.16;5037476;28;20083;-74
2021/07/14 05:46:42;;;;;;;14.05;12.48;;;;;;;26.69;47.78;99442.38;5042913;28;20042;-73
2021/07/14 05:49:07;;;;;;;14.68;12.98;;;;;;;26.74;47.73;99464.00;5051844;28;20028;-73
2021/07/14 05:51:33;;;;;;;13.68;12.32;;;;;;;26.77;48.00;99477.81;5031893;28;20033;-74
2021/07/14 05:54:02;;;;;;;15.05;13.70;;;;;;;26.85;47.88;99466.34;5031590;28;20026;-73
2021/07/14 05:56:27;;;;;;;14.02;12.15;;;;;;;26.77;47.84;99450.72;5040124;28;20158;-74
2021/07/14 05:58:53;;;;;;;14.65;12.75;;;;;;;26.10;47.71;99338.69;5038075;28;20531;-75
2021/07/14 06:01:20;;;;;;;14.18;12.57;;;;;;;26.70;47.45;99442.09;5032982;28;20074;-73
2021/07/14 06:03:47;;;;;;;15.50;12.35;;;;;;;26.65;47.40;99416.97;5039460;28;20041;-73
2021/07/14 06:06:15;;;;;;;15.65;14.00;;;;;;;27.05;47.30;99478.09;5035093;28;20029;-75
2021/07/14 06:08:40;;;;;;;15.02;13.68;;;;;;;27.12;47.19;99473.94;5064069;28;20405;-74
2021/07/14 06:11:06;;;;;;;15.32;13.68;;;;;;;26.86;47.06;99442.78;5040514;28;20024;-75
2021/07/14 06:13:32;;;;;;;14.90;12.88;;;;;;;27.18;46.73;99477.41;5045965;28;20031;-75
2021/07/14 06:15:57;;;;;;;13.30;11.77;;;;;;;27.15;46.79;99480.69;5030018;28;20069;-74
2021/07/14 06:18:23;;;;;;;17.95;14.20;;;;;;;27.22;46.59;99479.25;5031892;28;20107;-73
2021/07/14 06:20:48;;;;;;;18.27;16.38;;;;;;;27.16;46.62;99452.50;5031395;28;20029;-75
2021/07/14 06:23:14;;;;;;;15.95;14.18;;;;;;;27.31;46.17;99473.19;5031448;28;20104;-74
2021/07/14 06:25:39;;;;;;;22.75;19.50;;;;;;;27.49;46.47;99480.56;5033501;28;20399;-75
2021/07/14 06:28:06;;;;;;;16.88;14.35;;;;;;;27.21;46.02;99428.84;5048747;28;20024;-74
2021/07/14 06:30:31;;;;;;;16.05;14.13;;;;;;;27.52;45.54;99458.31;5045646;28;20030;-73
2021/07/14 06:32:58;;;;;;;18.80;16.80;;;;;;;27.67;45.41;99482.53;5050624;28;20379;-75
2021/07/14 06:35:24;;;;;;;21.27;16.05;;;;;;;27.75;45.36;99484.59;5047151;28;20040;-74
2021/07/14 06:37:50;;;;;;;18.10;15.65;;;;;;;27.58;45.29;99446.28;5046570;28;20413;-73
2021/07/14 06:40:16;;;;;;;14.52;13.10;;;;;;;27.91;45.17;99477.03;5050847;28;20486;-73
2021/07/14 06:42:41;;;;;;;14.63;13.32;;;;;;;27.64;44.95;99420.72;5050437;28;20098;-73
2021/07/14 06:45:09;;;;;;;15.18;13.77;;;;;;;28.01;44.94;99474.19;5034568;28;20481;-74
2021/07/14 06:47:35;;;;;;;15.88;13.93;;;;;;;27.38;44.78;99367.91;5027500;28;20087;-73
2021/07/14 06:50:03;;;;;;;13.27;11.95;;;;;;;28.13;44.48;99474.53;5042829;28;20048;-74
2021/07/14 06:52:28;;;;;;;14.88;13.02;;;;;;;27.99;44.59;99451.16;5040400;28;20052;-73
2021/07/14 06:54:53;;;;;;;15.35;12.30;;;;;;;27.93;43.98;99426.00;5052261;28;20108;-74
2021/07/14 06:57:20;;;;;;;13.32;11.85;;;;;;;28.30;43.99;99468.63;5040267;28;20105;-72
2021/07/14 06:59:45;;;;;;;13.77;12.32;;;;;;;28.39;43.78;99474.19;5030498;28;20421;-74
2021/07/14 07:02:11;;;;;;;13.20;11.77;;;;;;;28.41;43.62;99471.97;5031199;28;20108;-74
2021/07/14 07:04:37;;;;;;;12.48;11.30;;;;;;;28.18;43.38;99439.16;5031550;28;20403;-74
2021/07/14 07:07:02;;;;;;;13.68;11.45;;;;;;;27.99;43.30;99402.28;5029982;28;20029;-73
2021/07/14 07:09:28;;;;;;;15.45;12.27;;;;;;;28.11;43.12;99410.78;5030179;28;20025;-73
2021/07/14 07:11:53;;;;;;;12.63;11.00;;;;;;;28.46;43.05;99461.84;5031488;28;20043;-74
2021/07/14 07:14:19;;;;;;;12.40;11.18;;;;;;;28.61;42.74;99462.66;5042999;28;20041;-74
2021/07/14 07:16:45;;;;;;;14.38;12.30;;;;;;;28.66;42.57;99462.56;5041858;28;20036;-74
2021/07/14 07:19:10;;;;;;;13.65;11.38;;;;;;;28.66;42.89;99447.06;5039908;28;20025;-73
2021/07/14 07:21:36;;;;;;;15.52;11.00;;;;;;;28.82;42.32;99465.81;5030523;28;20077;-74
2021/07/14 07:24:03;;;;;;;14.18;12.82;;;;;;;28.90;42.42;99452.38;5043703;28;20056;-74
2021/07/14 07:26:28;;;;;;;14.50;11.60;;;;;;;28.92;42.34;99455.59;5043544;28;20094;-74
2021/07/14 07:29:00;;;;;;;19.63;13.45;;;;;;;28.65;41.92;99396.56;5035628;28;20564;-73
2021/07/14 07:31:25;;;;;;;;;;;;;;;28.90;42.52;99452.38;5045390;28;20031;-74
2021/07/14 07:33:51;;;;;;;11.88;10.63;;;;;;;29.07;41.67;99447.16;5042168;28;19913;-75
2021/07/14 07:36:17;;;;;;;11.98;10.15;;;;;;;28.98;41.02;99421.78;5045609;28;20087;-73
2021/07/14 07:38:43;;;;;;;11.23;10.07;;;;;;;29.33;41.20;99446.66;5038857;28;20026;-74
2021/07/14 07:41:09;;;;;;;12.25;10.95;;;;;;;29.46;41.02;99448.56;5040722;28;20044;-74
2021/07/14 07:43:34;;;;;;;14.38;10.38;;;;;;;29.52;40.90;99433.75;5041929;28;20029;-73
2021/07/14 07:46:00;;;;;;;11.75;10.65;;;;;;;27.70;40.49;99121.16;5054051;28;20647;-76
2021/07/14 07:48:26;;;;;;;14.93;10.82;;;;;;;29.62;40.04;99400.88;5050955;28;20025;-72
2021/07/14 07:50:52;;;;;;;15.43;13.80;;;;;;;29.68;40.22;99388.75;5035343;28;20033;-74
2021/07/14 07:53:19;;;;;;;12.10;10.80;;;;;;;30.10;39.61;99437.66;5047723;28;20037;-73
2021/07/14 07:55:46;;;;;;;15.05;10.13;;;;;;;29.95;39.47;99398.75;5053425;28;20028;-73
2021/07/14 07:58:12;;;;;;;14.95;10.73;;;;;;;30.29;39.17;99444.50;5053388;28;20442;-74
2021/07/14 08:00:38;;;;;;;13.27;11.68;;;;;;;30.35;38.85;99442.47;5045777;28;20092;-71
2021/07/14 08:03:03;;;;;;;13.57;10.43;;;;;;;30.08;38.90;99388.94;5035006;28;20044;-73
2021/07/14 08:05:29;;;;;;;14.02;10.90;;;;;;;30.51;38.76;99446.44;5068747;28;20651;-74
2021/07/14 08:07:55;;;;;;;12.68;11.48;;;;;;;30.34;38.80;99408.16;5052973;28;20029;-74
2021/07/14 08:10:21;;;;;;;11.38;10.18;;;;;;;30.35;38.29;99421.47;5037836;28;20096;-73
2021/07/14 08:12:46;;;;;;;12.15;10.10;;;;;;;30.29;38.24;99400.13;5050094;28;20116;-72
2021/07/14 08:15:12;;;;;;;14.32;12.07;;;;;;;30.64;37.88;99442.84;5053254;28;20032;-75
2021/07/14 08:17:39;;;;;;;14.18;12.10;;;;;;;30.52;38.18;99409.09;5053130;28;20109;-75
2021/07/14 08:20:07;;;;;;;15.13;11.32;;;;;;;30.43;38.10;99365.41;5048448;28;20457;-73
2021/07/14 08:22:32;;;;;;;15.48;13.88;;;;;;;30.97;37.99;99431.59;5053346;28;20047;-75
2021/07/14 08:24:57;;;;;;;24.52;12.70;;;;;;;31.09;38.05;99437.25;5053139;28;20550;-74
2021/07/14 08:27:24;;;;;;;13.25;10.77;;;;;;;31.19;37.51;99439.72;5049291;28;20036;-73
2021/07/14 08:29:59;;;;;;;14.88;11.27;;;;;;;31.07;37.40;99400.50;5052797;28;20414;-74
2021/07/14 08:32:29;;;;;;;11.57;10.43;;;;;;;31.10;36.79;99387.03;5051459;28;20106;-73
2021/07/14 08:34:55;;;;;;;13.50;12.30;;;;;;;31.51;36.76;99435.78;5038646;28;20025;-74
2021/07/14 08:37:22;;;;;;;12.93;11.82;;;;;;;31.64;36.93;99435.97;5042838;28;20053;-73
2021/07/14 08:39:48;;;;;;;13.15;10.88;;;;;;;31.71;36.54;99433.59;5041814;28;20052;-75
2021/07/14 08:42:17;;;;;;;14.15;10.90;;;;;;;31.81;36.33;99427.81;5043606;28;20048;-73
2021/07/14 08:44:43;;;;;;;10.98;9.93;;;;;;;31.47;36.15;99366.59;5036022;28;20486;-74
2021/07/14 08:47:09;;;;;;;11.90;10.02;;;;;;;31.96;35.79;99427.34;5035629;28;20024;-74
2021/07/14 08:49:38;;;;;;;12.15;10.63;;;;;;;32.00;36.08;99409.19;5055023;28;20044;-73
2021/07/14 08:52:03;;;;;;;10.75;9.68;;;;;;;32.12;35.66;99408.53;5052536;28;20047;-73
2021/07/14 08:54:29;;;;;;;11.38;10.27;;;;;;;32.03;35.66;99383.97;5047671;28;20502;-73
2021/07/14 08:56:55;;;;;;;13.80;10.75;;;;;;;32.11;35.17;99383.13;5032605;28;20040;-72
2021/07/14 08:59:21;;;;;;;12.02;10.27;;;;;;;32.42;35.12;99409.44;5048200;28;20056;-73
2021/07/14 09:01:48;;;;;;;10.30;9.07;;;;;;;32.53;35.29;99408.78;5042466;28;20528;-75
2021/07/14 09:04:14;;;;;;;11.40;10.23;;;;;;;32.50;35.15;99386.75;5048598;28;20147;-74
2021/07/14 09:06:40;;;;;;;14.27;10.85;;;;;;;32.66;35.09;99414.34;5043179;28;20040;-75
2021/07/14 09:09:06;;;;;;;14.98;11.48;;;;;;;32.73;34.97;99410.00;5034925;28;20037;-73
2021/07/14 09:11:50;;;;;;;11.30;9.93;;;;;;;32.50;34.79;99356.69;5034997;28;20027;-73
2021/07/14 09:14:25;;;;;;;14.63;13.13;;;;;;;32.93;34.69;99405.75;5030760;28;20021;-74
2021/07/14 09:16:50;;;;;;;13.95;11.52;;;;;;;33.02;34.41;99402.97;5039872;28;20515;-73
2021/07/14 09:19:16;;;;;;;13.68;10.20;;;;;;;32.81;33.60;99353.72;5052035;28;20103;-75
2021/07/14 09:21:42;;;;;;;14.23;11.52;;;;;;;33.17;33.59;99402.41;5052148;28;20029;-73
2021/07/14 09:24:40;;;;;;;11.52;10.38;;;;;;;33.38;33.80;99397.78;5052145;28;20523;-80
2021/07/14 09:27:16;;;;;;;14.95;11.27;;;;;;;33.62;32.42;99393.63;5051109;28;20051;-78
2021/07/14 09:29:42;;;;;;;12.35;9.45;;;;;;;33.71;32.14;99408.03;5040615;28;20120;-77
2021/07/14 09:32:10;;;;;;;13.50;12.30;;;;;;;33.93;32.30;99413.19;5034156;28;20550;-76
2021/07/14 09:34:37;;;;;;;11.07;8.85;;;;;;;34.00;31.65;99398.94;5045907;28;20051;-78
2021/07/14 09:37:04;;;;;;;11.98;9.10;;;;;;;33.91;31.80;99388.06;5032818;28;20030;-80
2021/07/14 09:39:37;;;;;;;16.70;12.93;;;;;;;34.03;31.43;99368.13;5045115;28;20057;-78
2021/07/14 09:42:11;;;;;;;12.32;9.80;;;;;;;34.46;31.40;99411.56;5031557;28;20413;-77
2021/07/14 09:44:48;;;;;;;15.32;13.18;;;;;;;34.57;30.18;99406.44;5043956;28;20147;-78
2021/07/14 09:47:19;;;;;;;12.23;11.00;;;;;;;34.44;30.08;99371.94;5051646;28;20033;-78
2021/07/14 09:49:47;;;;;;;12.70;11.25;;;;;;;34.90;30.10;99403.63;5051719;28;20508;-78
2021/07/14 09:52:18;;;;;;;17.75;9.93;;;;;;;34.90;29.67;99378.94;5033285;28;20025;-79
2021/07/14 09:54:43;;;;;;;11.05;9.48;;;;;;;34.78;29.57;99352.28;5030030;28;20049;-79
2021/07/14 09:57:24;;;;;;;13.50;9.48;;;;;;;35.28;28.91;99409.56;5030693;28;21435;-80
2021/07/14 09:59:49;;;;;;;12.20;10.27;;;;;;;35.42;29.18;99406.50;5032822;28;20452;-80
2021/07/14 10:02:16;;;;;;;10.07;9.07;;;;;;;35.30;28.43;99377.09;5051341;28;20037;-80
2021/07/14 10:04:44;;;;;;;10.80;8.98;;;;;;;35.51;27.99;99398.13;5051291;28;20033;-77
2021/07/14 10:07:17;;;;;;;10.73;9.43;;;;;;;35.54;28.34;99368.00;5044681;28;20013;-77
2021/07/14 10:09:45;;;;;;;18.77;10.88;;;;;;;35.62;28.14;99345.09;5032589;28;20030;-80
2021/07/14 10:12:50;;;;;;;10.13;9.05;;;;;;;35.64;27.67;99331.81;5044994;28;20414;-77
2021/07/14 10:15:15;;;;;;;15.90;9.50;;;;;;;36.08;27.25;99402.53;5024091;28;20041;-77
2021/07/14 10:17:44;;;;;;;11.75;10.65;;;;;;;36.06;26.60;99391.88;5010675;28;20423;-79
2021/07/14 10:20:22;;;;;;;13.10;10.55;;;;;;;36.18;26.93;99393.75;5019315;28;20049;-78
2021/07/14 10:22:53;;;;;;;11.35;10.35;;;;;;;35.98;26.82;99333.19;5036286;28;20490;-79
2021/07/14 10:25:19;;;;;;;13.35;12.05;;;;;;;36.42;27.17;99388.16;5059801;28;20062;-77
2021/07/14 10:27:46;;;;;;;13.50;11.70;;;;;;;36.67;26.63;99391.53;5034652;28;20064;-79
2021/07/14 10:30:13;;;;;;;10.93;9.93;;;;;;;36.87;25.98;99389.69;5030903;28;20518;-78
2021/07/14 10:32:41;;;;;;;12.48;11.30;;;;;;;37.03;25.79;99382.19;5031021;28;20029;-78
2021/07/14 10:35:16;;;;;;;10.07;8.77;;;;;;;37.12;26.05;99377.28;5030575;28;20055;-76
2021/07/14 10:37:48;;;;;;;11.65;8.95;;;;;;;37.22;25.67;99371.25;5035598;28;20116;-79
2021/07/14 10:40:16;;;;;;;11.13;9.50;;;;;;;37.27;26.07;99375.72;5030612;28;20033;-78
2021/07/14 10:42:45;;;;;;;14.90;10.00;;;;;;;37.36;25.71;99378.25;5048144;28;20036;-78
2021/07/14 10:45:11;;;;;;;14.65;10.50;;;;;;;37.27;25.50;99334.41;5064228;28;20037;-78
2021/07/14 10:47:37;;;;;;;8.98;8.07;;;;;;;37.59;24.99;99373.63;5041872;28;20025;-79
2021/07/14 10:50:02;;;;;;;11.23;10.30;;;;;;;37.69;25.40;99366.75;5042545;28;20508;-80
2021/07/14 10:52:28;;;;;;;9.82;8.93;;;;;;;37.83;25.32;99347.75;5048621;28;20508;-79
2021/07/14 10:54:55;;;;;;;11.00;8.35;;;;;;;38.19;25.08;99374.09;5054265;28;20029;-79
2021/07/14 10:57:21;;;;;;;13.25;10.40;;;;;;;37.60;25.11;99265.03;5047949;28;20060;-79
2021/07/14 10:59:48;;;;;;;9.57;8.52;;;;;;;38.48;25.13;99367.88;5061138;28;20103;-78
2021/07/14 11:02:15;;;;;;;9.50;8.40;;;;;;;38.60;24.27;99368.84;5051321;28;20034;-79
2021/07/14 11:04:42;;;;;;;8.40;7.70;;;;;;;38.62;24.19;99363.78;5050057;28;20040;-79
2021/07/14 11:07:08;;;;;;;10.05;8.90;;;;;;;38.68;24.34;99365.91;5043577;28;20025;-77
2021/07/14 11:09:47;;;;;;;11.25;9.25;;;;;;;38.61;24.38;99379.56;5048614;28;20579;-78
2021/07/14 11:12:37;;;;;;;9.50;8.68;;;;;;;38.71;23.47;99367.13;5046727;28;20029;-79
2021/07/14 11:15:04;;;;;;;12.07;9.65;;;;;;;38.74;23.96;99380.19;5052456;28;20034;-79
2021/07/14 11:17:35;;;;;;;11.48;8.15;;;;;;;38.48;23.15;99309.94;5042092;28;20044;-78
2021/07/14 11:20:12;;;;;;;12.10;8.40;;;;;;;38.98;23.41;99363.19;5041576;28;20475;-79
2021/07/14 11:22:42;;;;;;;11.38;8.38;;;;;;;39.13;23.87;99357.91;5050182;28;20032;-79
2021/07/14 11:25:28;;;;;;;11.20;8.30;;;;;;;39.15;23.02;99353.59;5058473;28;20036;-77
2021/07/14 11:28:08;;;;;;;9.73;7.50;;;;;;;39.04;23.49;99345.16;5048218;28;20044;-78
2021/07/14 11:30:43;;;;;;;9.63;8.57;;;;;;;38.95;23.05;99303.19;5049514;28;20112;-78